sensor_id;sensor_type;location;lat;lon;timestamp;temperature;humidity
17944;DHT22;9097;47.028;15.444;2024-02-16T00:01:30;3.20;99.90
17944;DHT22;9097;47.028;15.444;2024-02-16T00:04:32;3.20;99.90
17944;DHT22;9097;47.028;15.444;2024-02-16T00:07:35;3.30;99.90
17944;DHT22;9097;47.028;15.444;2024-02-16T00:10:38;3.20;99.90
17944;DHT22;9097;47.028;15.444;2024-02-16T00:13:40;3.10;99.90
17944;DHT22;9097;47.028;15.444;2024-02-16T00:16:44;3.10;99.90
17944;DHT22;9097;47.028;15.444;2024-02-16T00:22:49;2.90;99.90
17944;DHT22;9097;47.028;15.444;2024-02-16T03:16:57;2.00;99.90
17944;DHT22;9097;47.028;15.444;2024-02-16T03:20:00;2.30;99.90
17944;DHT22;9097;47.028;15.444;2024-02-16T03:23:04;2.10;99.90
17944;DHT22;9097;47.028;15.444;2024-02-16T03:26:15;2.10;99.90
17944;DHT22;9097;47.028;15.444;2024-02-16T03:29:17;2.10;99.90
17944;DHT22;9097;47.028;15.444;2024-02-16T03:32:20;2.10;99.90
17944;DHT22;9097;47.028;15.444;2024-02-16T03:35:22;2.20;99.90
17944;DHT22;9097;47.028;15.444;2024-02-16T03:38:26;2.10;99.90
17944;DHT22;9097;47.028;15.444;2024-02-16T03:44:33;1.80;99.90
17944;DHT22;9097;47.028;15.444;2024-02-16T03:47:35;2.00;99.90
17944;DHT22;9097;47.028;15.444;2024-02-16T03:50:38;1.80;99.90
17944;DHT22;9097;47.028;15.444;2024-02-16T03:53:40;1.90;99.90
17944;DHT22;9097;47.028;15.444;2024-02-16T03:56:44;1.70;99.90
17944;DHT22;9097;47.028;15.444;2024-02-16T03:59:47;1.80;99.90
17944;DHT22;9097;47.028;15.444;2024-02-16T04:02:50;2.00;99.90
17944;DHT22;9097;47.028;15.444;2024-02-16T04:05:52;1.80;99.90
17944;DHT22;9097;47.028;15.444;2024-02-16T04:08:56;1.60;99.90
17944;DHT22;9097;47.028;15.444;2024-02-16T04:15:05;1.60;99.90
17944;DHT22;9097;47.028;15.444;2024-02-16T04:18:08;1.80;99.90
17944;DHT22;9097;47.028;15.444;2024-02-16T04:21:11;1.80;99.90
17944;DHT22;9097;47.028;15.444;2024-02-16T04:24:14;1.60;99.90
17944;DHT22;9097;47.028;15.444;2024-02-16T04:27:18;1.90;99.90
17944;DHT22;9097;47.028;15.444;2024-02-16T04:30:21;1.70;99.90
17944;DHT22;9097;47.028;15.444;2024-02-16T04:33:24;1.70;99.90
17944;DHT22;9097;47.028;15.444;2024-02-16T05:22:13;1.60;99.90
17944;DHT22;9097;47.028;15.444;2024-02-16T05:25:16;1.60;99.90
17944;DHT22;9097;47.028;15.444;2024-02-16T05:28:21;1.60;99.90
17944;DHT22;9097;47.028;15.444;2024-02-16T05:31:24;1.60;99.90
17944;DHT22;9097;47.028;15.444;2024-02-16T05:34:26;1.50;99.90
17944;DHT22;9097;47.028;15.444;2024-02-16T05:37:33;1.60;99.90
17944;DHT22;9097;47.028;15.444;2024-02-16T05:43:55;1.70;99.90
17944;DHT22;9097;47.028;15.444;2024-02-16T05:46:57;1.20;99.90
17944;DHT22;9097;47.028;15.444;2024-02-16T05:50:00;1.30;99.90
17944;DHT22;9097;47.028;15.444;2024-02-16T05:53:02;1.70;99.90
17944;DHT22;9097;47.028;15.444;2024-02-16T05:56:05;1.70;99.90
17944;DHT22;9097;47.028;15.444;2024-02-16T05:59:09;1.40;99.90
17944;DHT22;9097;47.028;15.444;2024-02-16T06:02:13;1.50;99.90
17944;DHT22;9097;47.028;15.444;2024-02-16T06:05:15;1.10;99.90
17944;DHT22;9097;47.028;15.444;2024-02-16T06:54:06;2.70;99.90
17944;DHT22;9097;47.028;15.444;2024-02-16T06:57:08;2.80;99.90
17944;DHT22;9097;47.028;15.444;2024-02-16T07:03:16;2.80;99.90
17944;DHT22;9097;47.028;15.444;2024-02-16T07:06:19;3.00;99.90
17944;DHT22;9097;47.028;15.444;2024-02-16T07:09:21;3.30;99.90
17944;DHT22;9097;47.028;15.444;2024-02-16T07:12:24;3.20;99.90
17944;DHT22;9097;47.028;15.444;2024-02-16T07:15:27;3.30;99.90
17944;DHT22;9097;47.028;15.444;2024-02-16T07:24:35;3.70;99.90
17944;DHT22;9097;47.028;15.444;2024-02-16T07:42:52;5.60;99.90
17944;DHT22;9097;47.028;15.444;2024-02-16T07:45:56;4.60;99.90
17944;DHT22;9097;47.028;15.444;2024-02-16T07:48:59;4.70;99.90
17944;DHT22;9097;47.028;15.444;2024-02-16T07:52:02;4.90;99.90
17944;DHT22;9097;47.028;15.444;2024-02-16T07:58:08;5.30;99.90
17944;DHT22;9097;47.028;15.444;2024-02-16T08:01:13;5.40;99.90
17944;DHT22;9097;47.028;15.444;2024-02-16T08:04:17;5.60;99.90
17944;DHT22;9097;47.028;15.444;2024-02-16T08:07:19;5.70;99.90
17944;DHT22;9097;47.028;15.444;2024-02-16T08:10:22;5.80;99.90
17944;DHT22;9097;47.028;15.444;2024-02-16T08:19:34;6.40;99.90
17944;DHT22;9097;47.028;15.444;2024-02-16T08:22:37;6.50;99.90
17944;DHT22;9097;47.028;15.444;2024-02-16T08:25:39;7.00;99.90
17944;DHT22;9097;47.028;15.444;2024-02-16T08:28:43;7.00;99.90
17944;DHT22;9097;47.028;15.444;2024-02-16T08:37:56;7.70;99.90
17944;DHT22;9097;47.028;15.444;2024-02-16T08:41:01;7.90;99.90
17944;DHT22;9097;47.028;15.444;2024-02-16T08:44:04;8.30;99.90
17944;DHT22;9097;47.028;15.444;2024-02-16T08:47:09;8.40;99.90
